sensor_id;sensor_type;location;lat;lon;timestamp;temperature;humidity
43842;DHT22;29495;49.970;20.842;2022-11-22T00:01:25;3.80;99.90
43842;DHT22;29495;49.970;20.842;2022-11-22T00:03:51;3.80;99.90
43842;DHT22;29495;49.970;20.842;2022-11-22T00:06:17;3.80;99.90
43842;DHT22;29495;49.970;20.842;2022-11-22T00:08:43;3.80;99.90
43842;DHT22;29495;49.970;20.842;2022-11-22T00:11:09;3.80;99.90
43842;DHT22;29495;49.970;20.842;2022-11-22T00:13:35;3.80;99.90
43842;DHT22;29495;49.970;20.842;2022-11-22T00:16:02;3.80;99.90
43842;DHT22;29495;49.970;20.842;2022-11-22T00:18:29;3.80;99.90
43842;DHT22;29495;49.970;20.842;2022-11-22T00:20:55;3.70;99.90
43842;DHT22;29495;49.970;20.842;2022-11-22T00:23:21;3.60;99.90
43842;DHT22;29495;49.970;20.842;2022-11-22T00:25:47;3.70;99.90
43842;DHT22;29495;49.970;20.842;2022-11-22T00:28:13;3.60;99.90
43842;DHT22;29495;49.970;20.842;2022-11-22T00:30:39;3.50;99.90
43842;DHT22;29495;49.970;20.842;2022-11-22T00:33:05;3.50;99.90
43842;DHT22;29495;49.970;20.842;2022-11-22T00:35:31;3.50;99.90
43842;DHT22;29495;49.970;20.842;2022-11-22T00:37:57;3.40;99.90
43842;DHT22;29495;49.970;20.842;2022-11-22T00:40:23;3.40;99.90
43842;DHT22;29495;49.970;20.842;2022-11-22T00:42:49;3.30;99.90
43842;DHT22;29495;49.970;20.842;2022-11-22T00:45:15;3.20;99.90
43842;DHT22;29495;49.970;20.842;2022-11-22T00:47:41;3.20;99.90
43842;DHT22;29495;49.970;20.842;2022-11-22T00:50:08;3.20;99.90
43842;DHT22;29495;49.970;20.842;2022-11-22T00:52:34;3.10;99.90
43842;DHT22;29495;49.970;20.842;2022-11-22T00:55:00;3.10;99.90
43842;DHT22;29495;49.970;20.842;2022-11-22T00:57:26;3.10;99.90
43842;DHT22;29495;49.970;20.842;2022-11-22T00:59:52;3.10;99.90
43842;DHT22;29495;49.970;20.842;2022-11-22T01:02:18;3.10;99.90
43842;DHT22;29495;49.970;20.842;2022-11-22T01:04:44;3.00;99.90
43842;DHT22;29495;49.970;20.842;2022-11-22T01:07:10;3.00;99.90
43842;DHT22;29495;49.970;20.842;2022-11-22T01:09:36;3.00;99.90
43842;DHT22;29495;49.970;20.842;2022-11-22T01:12:02;2.80;99.90
43842;DHT22;29495;49.970;20.842;2022-11-22T01:14:28;2.70;99.90
43842;DHT22;29495;49.970;20.842;2022-11-22T01:16:54;2.70;99.90
43842;DHT22;29495;49.970;20.842;2022-11-22T01:19:20;2.60;99.90
43842;DHT22;29495;49.970;20.842;2022-11-22T01:21:46;2.60;99.90
43842;DHT22;29495;49.970;20.842;2022-11-22T01:24:12;2.60;99.90
43842;DHT22;29495;49.970;20.842;2022-11-22T01:26:38;2.60;99.90
43842;DHT22;29495;49.970;20.842;2022-11-22T01:29:04;2.50;99.90
43842;DHT22;29495;49.970;20.842;2022-11-22T01:31:31;2.40;99.90
43842;DHT22;29495;49.970;20.842;2022-11-22T01:33:57;2.30;99.90
43842;DHT22;29495;49.970;20.842;2022-11-22T01:36:24;2.30;99.90
43842;DHT22;29495;49.970;20.842;2022-11-22T01:38:50;2.10;99.90
43842;DHT22;29495;49.970;20.842;2022-11-22T01:41:16;2.00;99.90
43842;DHT22;29495;49.970;20.842;2022-11-22T01:43:42;1.90;99.90
43842;DHT22;29495;49.970;20.842;2022-11-22T01:46:31;1.90;99.90
43842;DHT22;29495;49.970;20.842;2022-11-22T01:49:11;1.90;99.90
43842;DHT22;29495;49.970;20.842;2022-11-22T01:51:43;1.90;99.90
43842;DHT22;29495;49.970;20.842;2022-11-22T01:54:18;1.90;99.90
43842;DHT22;29495;49.970;20.842;2022-11-22T01:56:50;1.80;99.90
43842;DHT22;29495;49.970;20.842;2022-11-22T01:59:19;1.70;99.90
43842;DHT22;29495;49.970;20.842;2022-11-22T02:01:45;1.70;99.90
43842;DHT22;29495;49.970;20.842;2022-11-22T02:04:13;1.60;99.90
43842;DHT22;29495;49.970;20.842;2022-11-22T02:09:22;1.60;99.90
43842;DHT22;29495;49.970;20.842;2022-11-22T02:11:51;1.40;99.90
43842;DHT22;29495;49.970;20.842;2022-11-22T02:14:22;1.40;99.90
43842;DHT22;29495;49.970;20.842;2022-11-22T02:16:49;1.40;99.90
43842;DHT22;29495;49.970;20.842;2022-11-22T02:19:22;1.30;99.90
43842;DHT22;29495;49.970;20.842;2022-11-22T02:21:54;1.30;99.90
43842;DHT22;29495;49.970;20.842;2022-11-22T02:24:30;1.20;99.90
43842;DHT22;29495;49.970;20.842;2022-11-22T02:26:59;1.30;99.90
43842;DHT22;29495;49.970;20.842;2022-11-22T02:29:25;1.20;99.90
43842;DHT22;29495;49.970;20.842;2022-11-22T02:31:51;1.20;99.90
43842;DHT22;29495;49.970;20.842;2022-11-22T02:34:17;1.20;99.90
43842;DHT22;29495;49.970;20.842;2022-11-22T02:36:50;1.20;99.90
43842;DHT22;29495;49.970;20.842;2022-11-22T02:39:22;1.20;99.90
43842;DHT22;29495;49.970;20.842;2022-11-22T02:41:50;1.20;99.90
43842;DHT22;29495;49.970;20.842;2022-11-22T02:44:17;1.00;99.90
43842;DHT22;29495;49.970;20.842;2022-11-22T02:46:49;0.80;99.90
43842;DHT22;29495;49.970;20.842;2022-11-22T02:49:17;0.80;99.90
43842;DHT22;29495;49.970;20.842;2022-11-22T02:51:43;0.70;99.90
43842;DHT22;29495;49.970;20.842;2022-11-22T02:54:09;0.50;99.90
43842;DHT22;29495;49.970;20.842;2022-11-22T02:56:35;0.50;99.90
43842;DHT22;29495;49.970;20.842;2022-11-22T02:59:01;0.50;99.90
43842;DHT22;29495;49.970;20.842;2022-11-22T03:01:28;0.60;99.90
43842;DHT22;29495;49.970;20.842;2022-11-22T03:03:54;0.70;99.90
43842;DHT22;29495;49.970;20.842;2022-11-22T03:06:20;0.70;99.90
43842;DHT22;29495;49.970;20.842;2022-11-22T03:08:46;0.80;99.90
43842;DHT22;29495;49.970;20.842;2022-11-22T03:11:14;0.80;99.90
43842;DHT22;29495;49.970;20.842;2022-11-22T03:13:39;0.80;99.90
43842;DHT22;29495;49.970;20.842;2022-11-22T03:16:06;0.90;99.90
43842;DHT22;29495;49.970;20.842;2022-11-22T03:18:33;0.90;99.90
43842;DHT22;29495;49.970;20.842;2022-11-22T03:21:07;1.00;99.90
43842;DHT22;29495;49.970;20.842;2022-11-22T03:23:34;1.00;99.90
43842;DHT22;29495;49.970;20.842;2022-11-22T03:26:07;1.00;99.90
43842;DHT22;29495;49.970;20.842;2022-11-22T03:28:33;1.00;99.90
43842;DHT22;29495;49.970;20.842;2022-11-22T03:30:59;1.00;99.90
43842;DHT22;29495;49.970;20.842;2022-11-22T03:33:25;1.00;99.90
43842;DHT22;29495;49.970;20.842;2022-11-22T03:35:55;1.00;99.90
43842;DHT22;29495;49.970;20.842;2022-11-22T03:38:22;1.00;99.90
43842;DHT22;29495;49.970;20.842;2022-11-22T03:40:48;1.00;99.90
43842;DHT22;29495;49.970;20.842;2022-11-22T03:43:14;1.00;99.90
43842;DHT22;29495;49.970;20.842;2022-11-22T03:45:44;1.00;99.90
43842;DHT22;29495;49.970;20.842;2022-11-22T03:48:10;1.10;99.90
43842;DHT22;29495;49.970;20.842;2022-11-22T03:50:36;1.00;99.90
43842;DHT22;29495;49.970;20.842;2022-11-22T03:53:02;1.10;99.90
43842;DHT22;29495;49.970;20.842;2022-11-22T03:55:28;1.10;99.90
43842;DHT22;29495;49.970;20.842;2022-11-22T03:57:54;1.10;99.90
43842;DHT22;29495;49.970;20.842;2022-11-22T04:00:20;1.00;99.90
43842;DHT22;29495;49.970;20.842;2022-11-22T04:02:46;1.10;99.90
43842;DHT22;29495;49.970;20.842;2022-11-22T04:05:12;1.10;99.90
43842;DHT22;29495;49.970;20.842;2022-11-22T04:07:38;1.10;99.90
43842;DHT22;29495;49.970;20.842;2022-11-22T04:10:04;1.10;99.90
43842;DHT22;29495;49.970;20.842;2022-11-22T04:12:30;1.10;99.90
43842;DHT22;29495;49.970;20.842;2022-11-22T04:14:56;1.20;99.90
43842;DHT22;29495;49.970;20.842;2022-11-22T04:17:43;1.10;99.90
43842;DHT22;29495;49.970;20.842;2022-11-22T04:23:27;1.00;99.90
43842;DHT22;29495;49.970;20.842;2022-11-22T04:25:54;1.10;99.90
43842;DHT22;29495;49.970;20.842;2022-11-22T04:28:22;1.00;99.90
43842;DHT22;29495;49.970;20.842;2022-11-22T04:30:49;1.00;99.90
43842;DHT22;29495;49.970;20.842;2022-11-22T04:33:34;1.00;99.90
43842;DHT22;29495;49.970;20.842;2022-11-22T04:36:00;1.00;99.90
43842;DHT22;29495;49.970;20.842;2022-11-22T04:38:26;1.00;99.90
43842;DHT22;29495;49.970;20.842;2022-11-22T04:40:52;1.00;99.90
43842;DHT22;29495;49.970;20.842;2022-11-22T04:43:27;0.90;99.90
43842;DHT22;29495;49.970;20.842;2022-11-22T04:46:13;0.90;99.90
43842;DHT22;29495;49.970;20.842;2022-11-22T04:48:39;0.90;99.90
43842;DHT22;29495;49.970;20.842;2022-11-22T04:51:06;0.90;99.90
43842;DHT22;29495;49.970;20.842;2022-11-22T04:53:51;0.90;99.90
43842;DHT22;29495;49.970;20.842;2022-11-22T04:56:18;0.90;99.90
43842;DHT22;29495;49.970;20.842;2022-11-22T04:58:44;0.90;99.90
43842;DHT22;29495;49.970;20.842;2022-11-22T05:01:10;0.90;99.90
43842;DHT22;29495;49.970;20.842;2022-11-22T05:03:36;0.90;99.90
43842;DHT22;29495;49.970;20.842;2022-11-22T05:06:03;1.00;99.90
43842;DHT22;29495;49.970;20.842;2022-11-22T05:08:29;1.10;99.90
43842;DHT22;29495;49.970;20.842;2022-11-22T05:10:56;1.00;99.90
43842;DHT22;29495;49.970;20.842;2022-11-22T05:13:34;1.00;99.90
43842;DHT22;29495;49.970;20.842;2022-11-22T05:16:02;1.00;99.90
43842;DHT22;29495;49.970;20.842;2022-11-22T05:18:29;0.90;99.90
43842;DHT22;29495;49.970;20.842;2022-11-22T05:20:55;0.80;99.90
43842;DHT22;29495;49.970;20.842;2022-11-22T05:23:22;0.80;99.90
43842;DHT22;29495;49.970;20.842;2022-11-22T05:26:07;0.80;99.90
43842;DHT22;29495;49.970;20.842;2022-11-22T05:28:35;0.80;99.90
43842;DHT22;29495;49.970;20.842;2022-11-22T05:31:12;0.80;99.90
43842;DHT22;29495;49.970;20.842;2022-11-22T05:33:40;0.80;99.90
43842;DHT22;29495;49.970;20.842;2022-11-22T05:36:07;0.80;99.90
43842;DHT22;29495;49.970;20.842;2022-11-22T05:38:34;0.80;99.90
43842;DHT22;29495;49.970;20.842;2022-11-22T05:41:01;0.70;99.90
43842;DHT22;29495;49.970;20.842;2022-11-22T05:43:27;0.70;99.90
43842;DHT22;29495;49.970;20.842;2022-11-22T05:45:53;0.70;99.90
43842;DHT22;29495;49.970;20.842;2022-11-22T05:48:19;0.70;99.90
43842;DHT22;29495;49.970;20.842;2022-11-22T05:50:45;0.70;99.90
43842;DHT22;29495;49.970;20.842;2022-11-22T05:53:11;0.80;99.90
43842;DHT22;29495;49.970;20.842;2022-11-22T05:55:37;0.80;99.90
43842;DHT22;29495;49.970;20.842;2022-11-22T05:58:03;0.90;99.90
43842;DHT22;29495;49.970;20.842;2022-11-22T06:00:29;0.90;99.90
43842;DHT22;29495;49.970;20.842;2022-11-22T06:03:00;0.90;99.90
43842;DHT22;29495;49.970;20.842;2022-11-22T06:05:27;1.00;99.90
43842;DHT22;29495;49.970;20.842;2022-11-22T06:07:56;1.00;99.90
43842;DHT22;29495;49.970;20.842;2022-11-22T06:10:22;1.00;99.90
43842;DHT22;29495;49.970;20.842;2022-11-22T06:12:48;1.00;99.90
43842;DHT22;29495;49.970;20.842;2022-11-22T06:15:14;1.00;99.90
43842;DHT22;29495;49.970;20.842;2022-11-22T06:17:41;1.00;99.90
43842;DHT22;29495;49.970;20.842;2022-11-22T06:20:07;1.00;99.90
43842;DHT22;29495;49.970;20.842;2022-11-22T06:22:33;1.00;99.90
43842;DHT22;29495;49.970;20.842;2022-11-22T06:24:59;1.00;99.90
43842;DHT22;29495;49.970;20.842;2022-11-22T06:27:25;1.00;99.90
43842;DHT22;29495;49.970;20.842;2022-11-22T06:29:51;1.10;99.90
43842;DHT22;29495;49.970;20.842;2022-11-22T06:32:17;1.50;99.90
43842;DHT22;29495;49.970;20.842;2022-11-22T06:34:43;1.80;99.90
43842;DHT22;29495;49.970;20.842;2022-11-22T06:37:09;2.10;99.90
43842;DHT22;29495;49.970;20.842;2022-11-22T06:39:35;2.60;99.90
43842;DHT22;29495;49.970;20.842;2022-11-22T06:42:02;2.80;99.90
43842;DHT22;29495;49.970;20.842;2022-11-22T06:44:28;2.80;99.90
43842;DHT22;29495;49.970;20.842;2022-11-22T06:46:54;3.40;99.90
43842;DHT22;29495;49.970;20.842;2022-11-22T06:49:20;3.80;99.90
43842;DHT22;29495;49.970;20.842;2022-11-22T06:51:46;4.30;99.90
43842;DHT22;29495;49.970;20.842;2022-11-22T06:54:12;4.70;99.90
43842;DHT22;29495;49.970;20.842;2022-11-22T06:56:39;4.80;99.90
43842;DHT22;29495;49.970;20.842;2022-11-22T06:59:06;4.80;99.90
43842;DHT22;29495;49.970;20.842;2022-11-22T07:01:33;5.30;99.90
43842;DHT22;29495;49.970;20.842;2022-11-22T07:04:01;5.50;99.90
43842;DHT22;29495;49.970;20.842;2022-11-22T07:06:29;5.30;99.90
43842;DHT22;29495;49.970;20.842;2022-11-22T07:08:58;5.00;99.90
43842;DHT22;29495;49.970;20.842;2022-11-22T07:11:26;5.10;99.90
43842;DHT22;29495;49.970;20.842;2022-11-22T07:13:54;4.90;99.90
43842;DHT22;29495;49.970;20.842;2022-11-22T07:16:20;4.40;99.90
43842;DHT22;29495;49.970;20.842;2022-11-22T07:18:48;4.30;99.90
43842;DHT22;29495;49.970;20.842;2022-11-22T07:21:18;4.30;99.90
43842;DHT22;29495;49.970;20.842;2022-11-22T07:23:46;4.70;99.90
43842;DHT22;29495;49.970;20.842;2022-11-22T07:26:13;4.90;99.90
43842;DHT22;29495;49.970;20.842;2022-11-22T07:28:40;5.00;99.90
43842;DHT22;29495;49.970;20.842;2022-11-22T07:31:08;4.70;99.90
43842;DHT22;29495;49.970;20.842;2022-11-22T07:33:34;4.60;99.90
43842;DHT22;29495;49.970;20.842;2022-11-22T07:36:19;4.60;99.90
43842;DHT22;29495;49.970;20.842;2022-11-22T07:38:46;4.60;99.90
43842;DHT22;29495;49.970;20.842;2022-11-22T07:41:13;4.60;99.90
43842;DHT22;29495;49.970;20.842;2022-11-22T07:43:40;4.60;99.90
43842;DHT22;29495;49.970;20.842;2022-11-22T07:46:23;4.80;99.90
43842;DHT22;29495;49.970;20.842;2022-11-22T07:48:50;5.20;99.90
43842;DHT22;29495;49.970;20.842;2022-11-22T07:51:16;5.40;99.90
43842;DHT22;29495;49.970;20.842;2022-11-22T07:53:43;5.50;99.90
43842;DHT22;29495;49.970;20.842;2022-11-22T07:56:08;5.70;99.90
43842;DHT22;29495;49.970;20.842;2022-11-22T07:58:34;6.20;99.90
43842;DHT22;29495;49.970;20.842;2022-11-22T08:01:10;6.50;99.90
43842;DHT22;29495;49.970;20.842;2022-11-22T08:03:36;6.40;99.90
43842;DHT22;29495;49.970;20.842;2022-11-22T08:06:04;6.00;99.90
43842;DHT22;29495;49.970;20.842;2022-11-22T08:08:31;5.50;99.90
43842;DHT22;29495;49.970;20.842;2022-11-22T08:10:57;5.10;99.90
43842;DHT22;29495;49.970;20.842;2022-11-22T08:13:23;4.80;99.90
43842;DHT22;29495;49.970;20.842;2022-11-22T08:15:49;4.60;99.90
43842;DHT22;29495;49.970;20.842;2022-11-22T08:18:16;4.60;99.90
43842;DHT22;29495;49.970;20.842;2022-11-22T08:20:42;4.60;99.90
43842;DHT22;29495;49.970;20.842;2022-11-22T08:23:08;4.50;99.90
43842;DHT22;29495;49.970;20.842;2022-11-22T08:25:33;4.50;99.90
43842;DHT22;29495;49.970;20.842;2022-11-22T08:27:59;4.50;99.90
43842;DHT22;29495;49.970;20.842;2022-11-22T08:30:25;4.40;99.90
43842;DHT22;29495;49.970;20.842;2022-11-22T08:32:55;4.50;99.90
43842;DHT22;29495;49.970;20.842;2022-11-22T08:35:21;4.50;99.90
43842;DHT22;29495;49.970;20.842;2022-11-22T08:37:47;4.70;99.90
43842;DHT22;29495;49.970;20.842;2022-11-22T08:40:13;4.70;99.90
43842;DHT22;29495;49.970;20.842;2022-11-22T08:42:39;4.80;99.90
43842;DHT22;29495;49.970;20.842;2022-11-22T08:45:05;4.90;99.90
43842;DHT22;29495;49.970;20.842;2022-11-22T08:47:32;4.90;99.90
43842;DHT22;29495;49.970;20.842;2022-11-22T08:49:58;5.00;99.90
43842;DHT22;29495;49.970;20.842;2022-11-22T08:52:24;5.00;99.90
43842;DHT22;29495;49.970;20.842;2022-11-22T08:54:50;5.10;99.90
43842;DHT22;29495;49.970;20.842;2022-11-22T08:57:16;5.20;99.90
43842;DHT22;29495;49.970;20.842;2022-11-22T08:59:42;5.10;99.90
43842;DHT22;29495;49.970;20.842;2022-11-22T09:02:08;5.30;99.90
43842;DHT22;29495;49.970;20.842;2022-11-22T09:04:34;5.40;99.90
43842;DHT22;29495;49.970;20.842;2022-11-22T09:07:00;5.50;99.90
43842;DHT22;29495;49.970;20.842;2022-11-22T09:09:26;5.50;99.90
43842;DHT22;29495;49.970;20.842;2022-11-22T09:11:52;5.60;99.90
43842;DHT22;29495;49.970;20.842;2022-11-22T09:14:18;5.70;99.90
43842;DHT22;29495;49.970;20.842;2022-11-22T09:16:44;5.70;99.90
43842;DHT22;29495;49.970;20.842;2022-11-22T09:19:10;5.90;99.90
43842;DHT22;29495;49.970;20.842;2022-11-22T09:21:36;5.90;99.90
43842;DHT22;29495;49.970;20.842;2022-11-22T09:24:02;6.00;99.90
43842;DHT22;29495;49.970;20.842;2022-11-22T09:26:28;6.10;99.90
43842;DHT22;29495;49.970;20.842;2022-11-22T09:28:56;6.10;99.90
43842;DHT22;29495;49.970;20.842;2022-11-22T09:31:22;6.10;99.90
43842;DHT22;29495;49.970;20.842;2022-11-22T09:33:49;6.30;99.90
43842;DHT22;29495;49.970;20.842;2022-11-22T09:36:18;6.40;99.90
43842;DHT22;29495;49.970;20.842;2022-11-22T09:38:44;6.40;99.90
43842;DHT22;29495;49.970;20.842;2022-11-22T09:46:42;6.50;99.90
43842;DHT22;29495;49.970;20.842;2022-11-22T09:52:53;6.70;99.90
43842;DHT22;29495;49.970;20.842;2022-11-22T09:55:33;6.70;99.90
43842;DHT22;29495;49.970;20.842;2022-11-22T10:00:55;6.80;99.90
43842;DHT22;29495;49.970;20.842;2022-11-22T10:06:22;6.90;99.90
43842;DHT22;29495;49.970;20.842;2022-11-22T10:14:54;7.00;99.90
43842;DHT22;29495;49.970;20.842;2022-11-22T10:17:41;7.10;99.90
43842;DHT22;29495;49.970;20.842;2022-11-22T10:20:21;7.30;99.90
43842;DHT22;29495;49.970;20.842;2022-11-22T10:22:48;7.30;99.90
43842;DHT22;29495;49.970;20.842;2022-11-22T10:25:15;7.30;99.90
43842;DHT22;29495;49.970;20.842;2022-11-22T10:27:42;7.40;99.90
43842;DHT22;29495;49.970;20.842;2022-11-22T10:30:19;7.50;99.90
43842;DHT22;29495;49.970;20.842;2022-11-22T10:43:54;8.10;99.90
43842;DHT22;29495;49.970;20.842;2022-11-22T11:00:24;8.00;99.90
43842;DHT22;29495;49.970;20.842;2022-11-22T11:08:03;8.00;99.90
43842;DHT22;29495;49.970;20.842;2022-11-22T11:10:34;8.10;99.90
43842;DHT22;29495;49.970;20.842;2022-11-22T11:13:08;8.10;99.90
43842;DHT22;29495;49.970;20.842;2022-11-22T11:15:49;8.20;99.90
43842;DHT22;29495;49.970;20.842;2022-11-22T11:20:54;8.20;99.90
43842;DHT22;29495;49.970;20.842;2022-11-22T11:23:20;8.30;99.90
43842;DHT22;29495;49.970;20.842;2022-11-22T11:25:47;8.40;99.90
43842;DHT22;29495;49.970;20.842;2022-11-22T11:28:26;8.40;99.90
43842;DHT22;29495;49.970;20.842;2022-11-22T11:31:07;8.50;99.90
43842;DHT22;29495;49.970;20.842;2022-11-22T11:33:35;8.50;99.90
43842;DHT22;29495;49.970;20.842;2022-11-22T11:36:22;8.60;99.90
43842;DHT22;29495;49.970;20.842;2022-11-22T11:38:56;8.60;99.90
43842;DHT22;29495;49.970;20.842;2022-11-22T11:43:50;8.70;99.90
43842;DHT22;29495;49.970;20.842;2022-11-22T11:46:25;8.80;99.90
43842;DHT22;29495;49.970;20.842;2022-11-22T11:49:07;8.80;99.90
43842;DHT22;29495;49.970;20.842;2022-11-22T11:51:39;8.80;99.90
43842;DHT22;29495;49.970;20.842;2022-11-22T11:54:16;8.80;99.90
43842;DHT22;29495;49.970;20.842;2022-11-22T11:56:46;8.80;99.90
43842;DHT22;29495;49.970;20.842;2022-11-22T11:59:21;8.90;99.90
43842;DHT22;29495;49.970;20.842;2022-11-22T12:01:57;8.80;99.90
43842;DHT22;29495;49.970;20.842;2022-11-22T12:04:33;8.80;99.90
43842;DHT22;29495;49.970;20.842;2022-11-22T12:09:59;8.80;99.90
43842;DHT22;29495;49.970;20.842;2022-11-22T12:12:45;8.70;99.90
43842;DHT22;29495;49.970;20.842;2022-11-22T12:16:08;8.70;99.90
43842;DHT22;29495;49.970;20.842;2022-11-22T12:18:47;8.60;99.90
43842;DHT22;29495;49.970;20.842;2022-11-22T12:26:58;8.50;99.90
43842;DHT22;29495;49.970;20.842;2022-11-22T12:29:24;8.50;99.90
43842;DHT22;29495;49.970;20.842;2022-11-22T12:37:33;8.50;99.90
43842;DHT22;29495;49.970;20.842;2022-11-22T12:40:16;8.40;99.90
43842;DHT22;29495;49.970;20.842;2022-11-22T12:42:50;8.30;99.90
43842;DHT22;29495;49.970;20.842;2022-11-22T12:45:46;8.30;99.90
43842;DHT22;29495;49.970;20.842;2022-11-22T12:48:20;8.30;99.90
43842;DHT22;29495;49.970;20.842;2022-11-22T12:50:50;8.10;99.90
43842;DHT22;29495;49.970;20.842;2022-11-22T12:53:27;8.00;99.90
43842;DHT22;29495;49.970;20.842;2022-11-22T12:59:16;7.90;99.90
43842;DHT22;29495;49.970;20.842;2022-11-22T13:01:48;7.90;99.90
43842;DHT22;29495;49.970;20.842;2022-11-22T13:10:36;7.80;99.90
43842;DHT22;29495;49.970;20.842;2022-11-22T13:13:10;7.70;99.90
43842;DHT22;29495;49.970;20.842;2022-11-22T13:15:38;7.60;99.90
43842;DHT22;29495;49.970;20.842;2022-11-22T13:18:09;7.60;99.90
43842;DHT22;29495;49.970;20.842;2022-11-22T13:20:43;7.60;99.90
43842;DHT22;29495;49.970;20.842;2022-11-22T13:23:27;7.60;99.90
43842;DHT22;29495;49.970;20.842;2022-11-22T13:26:05;7.50;99.90
43842;DHT22;29495;49.970;20.842;2022-11-22T13:28:36;7.40;99.90
43842;DHT22;29495;49.970;20.842;2022-11-22T13:33:56;7.30;99.90
43842;DHT22;29495;49.970;20.842;2022-11-22T13:39:00;7.10;99.90
43842;DHT22;29495;49.970;20.842;2022-11-22T13:41:36;7.00;99.90
43842;DHT22;29495;49.970;20.842;2022-11-22T13:47:03;6.70;99.90
43842;DHT22;29495;49.970;20.842;2022-11-22T13:49:43;6.60;99.90
43842;DHT22;29495;49.970;20.842;2022-11-22T13:57:35;6.40;99.90
43842;DHT22;29495;49.970;20.842;2022-11-22T14:02:45;6.10;99.90
43842;DHT22;29495;49.970;20.842;2022-11-22T14:07:53;5.80;99.90
43842;DHT22;29495;49.970;20.842;2022-11-22T14:15:50;5.60;99.90
43842;DHT22;29495;49.970;20.842;2022-11-22T14:21:08;5.30;99.90
43842;DHT22;29495;49.970;20.842;2022-11-22T14:32:13;5.20;99.90
43842;DHT22;29495;49.970;20.842;2022-11-22T14:53:21;4.70;99.90
43842;DHT22;29495;49.970;20.842;2022-11-22T14:55:56;4.70;99.90
43842;DHT22;29495;49.970;20.842;2022-11-22T14:58:25;4.60;99.90
43842;DHT22;29495;49.970;20.842;2022-11-22T15:12:23;4.00;99.90
43842;DHT22;29495;49.970;20.842;2022-11-22T15:17:56;3.90;99.90
43842;DHT22;29495;49.970;20.842;2022-11-22T15:20:37;3.80;99.90
43842;DHT22;29495;49.970;20.842;2022-11-22T15:23:18;3.60;99.90
43842;DHT22;29495;49.970;20.842;2022-11-22T15:25:46;3.50;99.90
43842;DHT22;29495;49.970;20.842;2022-11-22T15:28:18;3.40;99.90
43842;DHT22;29495;49.970;20.842;2022-11-22T15:30:46;3.30;99.90
43842;DHT22;29495;49.970;20.842;2022-11-22T15:33:31;3.30;99.90
43842;DHT22;29495;49.970;20.842;2022-11-22T15:38:45;3.30;99.90
43842;DHT22;29495;49.970;20.842;2022-11-22T15:41:32;3.40;99.90
43842;DHT22;29495;49.970;20.842;2022-11-22T15:44:00;3.30;99.90
43842;DHT22;29495;49.970;20.842;2022-11-22T15:46:28;3.20;99.90
43842;DHT22;29495;49.970;20.842;2022-11-22T15:48:55;3.30;99.90
43842;DHT22;29495;49.970;20.842;2022-11-22T15:51:29;3.30;99.90
43842;DHT22;29495;49.970;20.842;2022-11-22T15:58:55;3.20;99.90
43842;DHT22;29495;49.970;20.842;2022-11-22T16:01:21;3.10;99.90
43842;DHT22;29495;49.970;20.842;2022-11-22T16:03:55;3.00;99.90
43842;DHT22;29495;49.970;20.842;2022-11-22T16:06:24;2.90;99.90
43842;DHT22;29495;49.970;20.842;2022-11-22T16:08:59;2.90;99.90
43842;DHT22;29495;49.970;20.842;2022-11-22T16:11:31;2.90;99.90
43842;DHT22;29495;49.970;20.842;2022-11-22T16:13:59;2.90;99.90
43842;DHT22;29495;49.970;20.842;2022-11-22T16:16:32;2.90;99.90
43842;DHT22;29495;49.970;20.842;2022-11-22T16:19:22;2.90;99.90
43842;DHT22;29495;49.970;20.842;2022-11-22T16:21:56;2.70;99.90
43842;DHT22;29495;49.970;20.842;2022-11-22T16:24:26;2.50;99.90
43842;DHT22;29495;49.970;20.842;2022-11-22T16:27:01;2.20;99.90
43842;DHT22;29495;49.970;20.842;2022-11-22T16:29:35;2.10;99.90
43842;DHT22;29495;49.970;20.842;2022-11-22T16:32:12;1.90;99.90
43842;DHT22;29495;49.970;20.842;2022-11-22T16:34:39;1.90;99.90
43842;DHT22;29495;49.970;20.842;2022-11-22T16:37:29;2.00;99.90
43842;DHT22;29495;49.970;20.842;2022-11-22T16:39:56;2.00;99.90
43842;DHT22;29495;49.970;20.842;2022-11-22T16:42:26;2.10;99.90
43842;DHT22;29495;49.970;20.842;2022-11-22T16:44:52;2.10;99.90
43842;DHT22;29495;49.970;20.842;2022-11-22T16:47:18;2.10;99.90
43842;DHT22;29495;49.970;20.842;2022-11-22T16:49:47;2.10;99.90
43842;DHT22;29495;49.970;20.842;2022-11-22T16:52:14;1.90;99.90
43842;DHT22;29495;49.970;20.842;2022-11-22T16:54:40;1.90;99.90
43842;DHT22;29495;49.970;20.842;2022-11-22T16:57:11;1.70;99.90
43842;DHT22;29495;49.970;20.842;2022-11-22T16:59:37;1.60;99.90
43842;DHT22;29495;49.970;20.842;2022-11-22T17:02:13;1.60;99.90
43842;DHT22;29495;49.970;20.842;2022-11-22T17:04:39;1.60;99.90
43842;DHT22;29495;49.970;20.842;2022-11-22T17:07:13;1.50;99.90
43842;DHT22;29495;49.970;20.842;2022-11-22T17:09:39;1.50;99.90
43842;DHT22;29495;49.970;20.842;2022-11-22T17:12:31;1.20;99.90
43842;DHT22;29495;49.970;20.842;2022-11-22T17:14:57;1.30;99.90
43842;DHT22;29495;49.970;20.842;2022-11-22T17:17:23;1.30;99.90
43842;DHT22;29495;49.970;20.842;2022-11-22T17:19:49;1.30;99.90
43842;DHT22;29495;49.970;20.842;2022-11-22T17:22:16;1.30;99.90
43842;DHT22;29495;49.970;20.842;2022-11-22T17:24:43;1.20;99.90
43842;DHT22;29495;49.970;20.842;2022-11-22T17:27:11;1.00;99.90
43842;DHT22;29495;49.970;20.842;2022-11-22T17:29:38;0.80;99.90
43842;DHT22;29495;49.970;20.842;2022-11-22T17:32:04;0.80;99.90
43842;DHT22;29495;49.970;20.842;2022-11-22T17:34:30;0.60;99.90
43842;DHT22;29495;49.970;20.842;2022-11-22T17:36:56;0.80;99.90
43842;DHT22;29495;49.970;20.842;2022-11-22T17:39:22;0.80;99.90
43842;DHT22;29495;49.970;20.842;2022-11-22T17:41:48;0.80;99.90
43842;DHT22;29495;49.970;20.842;2022-11-22T17:44:16;0.80;99.90
43842;DHT22;29495;49.970;20.842;2022-11-22T17:46:42;0.70;99.90
43842;DHT22;29495;49.970;20.842;2022-11-22T17:49:09;0.70;99.90
43842;DHT22;29495;49.970;20.842;2022-11-22T17:51:36;0.70;99.90
43842;DHT22;29495;49.970;20.842;2022-11-22T17:54:02;0.70;99.90
43842;DHT22;29495;49.970;20.842;2022-11-22T17:56:29;0.50;99.90
43842;DHT22;29495;49.970;20.842;2022-11-22T17:58:58;0.50;99.90
43842;DHT22;29495;49.970;20.842;2022-11-22T18:01:25;0.40;99.90
43842;DHT22;29495;49.970;20.842;2022-11-22T18:03:51;0.40;99.90
43842;DHT22;29495;49.970;20.842;2022-11-22T18:06:18;0.40;99.90
43842;DHT22;29495;49.970;20.842;2022-11-22T18:08:46;0.50;99.90
43842;DHT22;29495;49.970;20.842;2022-11-22T18:11:12;0.60;99.90
43842;DHT22;29495;49.970;20.842;2022-11-22T18:13:39;0.60;99.90
43842;DHT22;29495;49.970;20.842;2022-11-22T18:16:08;0.80;99.90
43842;DHT22;29495;49.970;20.842;2022-11-22T18:18:36;0.80;99.90
43842;DHT22;29495;49.970;20.842;2022-11-22T18:21:03;0.90;99.90
43842;DHT22;29495;49.970;20.842;2022-11-22T18:23:33;1.00;99.90
43842;DHT22;29495;49.970;20.842;2022-11-22T18:26:00;0.90;99.90